createdAt,value
2018-11-13T00:00:24.394Z,11.70
2018-11-13T00:02:53.334Z,11.60
2018-11-13T00:05:22.219Z,11.60
2018-11-13T00:07:51.055Z,11.60
2018-11-13T00:10:19.449Z,11.60
2018-11-13T00:12:47.938Z,11.60
2018-11-13T00:15:17.360Z,11.60
2018-11-13T00:17:45.943Z,11.60
2018-11-13T00:20:15.290Z,11.60
2018-11-13T00:22:44.046Z,11.60
2018-11-13T00:25:13.671Z,11.50
2018-11-13T00:27:42.976Z,11.50
2018-11-13T00:30:14.404Z,11.50
2018-11-13T00:32:43.500Z,11.60
2018-11-13T00:35:13.123Z,11.60
2018-11-13T00:37:42.593Z,11.60
2018-11-13T00:40:11.723Z,11.70
2018-11-13T00:42:41.254Z,11.80
2018-11-13T00:45:09.876Z,11.80
2018-11-13T00:47:38.591Z,11.80
2018-11-13T00:50:08.999Z,11.70
2018-11-13T00:52:38.139Z,11.60
2018-11-13T00:55:06.754Z,11.50
2018-11-13T00:57:36.009Z,11.50
2018-11-13T01:00:06.573Z,11.50
2018-11-13T01:02:34.802Z,11.40
2018-11-13T01:05:03.915Z,11.30
2018-11-13T01:07:32.196Z,11.30
2018-11-13T01:10:00.895Z,11.30
2018-11-13T01:12:29.555Z,11.30
2018-11-13T01:14:58.318Z,11.20
2018-11-13T01:17:27.121Z,11.20
2018-11-13T01:19:55.787Z,11.20
2018-11-13T01:22:24.480Z,11.20
2018-11-13T01:24:53.142Z,11.20
2018-11-13T01:27:21.614Z,11.30
2018-11-13T01:29:56.475Z,11.30
2018-11-13T01:32:26.266Z,11.20
2018-11-13T01:34:54.544Z,11.10
2018-11-13T01:37:23.247Z,11.10
2018-11-13T01:39:51.806Z,11.00
2018-11-13T01:42:20.319Z,11.10
2018-11-13T01:44:49.133Z,11.10
2018-11-13T01:47:17.765Z,11.10
2018-11-13T01:49:46.475Z,11.00
2018-11-13T01:52:14.939Z,10.90
2018-11-13T01:54:43.359Z,10.80
2018-11-13T01:57:12.757Z,10.80
2018-11-13T01:59:41.121Z,10.70
2018-11-13T02:02:09.822Z,10.70
2018-11-13T02:04:38.485Z,10.60
2018-11-13T02:07:08.095Z,10.50
2018-11-13T02:09:36.948Z,10.50
2018-11-13T02:12:05.572Z,10.50
2018-11-13T02:14:34.841Z,10.50
2018-11-13T02:17:03.187Z,10.50
2018-11-13T02:19:31.768Z,10.50
2018-11-13T02:22:00.032Z,10.60
2018-11-13T02:24:28.931Z,10.60
2018-11-13T02:26:58.093Z,10.60
2018-11-13T02:29:26.948Z,10.60
2018-11-13T02:31:56.455Z,10.50
2018-11-13T02:34:25.039Z,10.40
2018-11-13T02:36:53.516Z,10.20
2018-11-13T02:39:21.768Z,10.20
2018-11-13T02:41:50.431Z,10.10
2018-11-13T02:44:19.111Z,10.10
2018-11-13T02:46:47.417Z,10.20
2018-11-13T02:49:16.309Z,10.20
2018-11-13T02:51:45.077Z,10.20
2018-11-13T02:54:13.575Z,10.30
2018-11-13T02:56:43.249Z,10.30
2018-11-13T02:59:11.524Z,10.40
2018-11-13T03:01:39.783Z,10.60
2018-11-13T03:04:09.010Z,10.80
2018-11-13T03:06:37.251Z,10.90
2018-11-13T03:09:06.607Z,11.10
2018-11-13T03:11:34.882Z,11.30
2018-11-13T03:14:03.320Z,11.50
2018-11-13T03:16:32.103Z,11.70
2018-11-13T03:19:00.791Z,11.70
2018-11-13T03:21:29.840Z,11.80
2018-11-13T03:23:58.983Z,11.90
2018-11-13T03:26:27.681Z,11.90
2018-11-13T03:28:56.463Z,12.10
2018-11-13T03:31:25.264Z,12.20
2018-11-13T03:33:53.491Z,12.20
2018-11-13T03:36:22.624Z,12.30
2018-11-13T03:38:51.308Z,12.30
2018-11-13T03:41:19.560Z,12.30
2018-11-13T03:43:47.991Z,12.40
2018-11-13T03:46:16.222Z,12.40
2018-11-13T03:48:45.036Z,12.40
2018-11-13T03:51:13.616Z,12.40
2018-11-13T03:53:41.863Z,12.40
2018-11-13T03:56:10.504Z,12.40
2018-11-13T03:58:39.883Z,12.40
2018-11-13T04:01:08.288Z,12.30
2018-11-13T04:03:36.959Z,12.30
2018-11-13T04:06:05.371Z,12.30
2018-11-13T04:08:33.645Z,12.20
2018-11-13T04:11:02.568Z,12.20
2018-11-13T04:13:32.077Z,12.20
2018-11-13T04:16:00.808Z,12.20
2018-11-13T04:18:29.874Z,12.20
2018-11-13T04:20:58.559Z,12.20
2018-11-13T04:23:27.384Z,12.20
2018-11-13T04:25:56.066Z,12.30
2018-11-13T04:28:25.244Z,12.20
2018-11-13T04:30:54.051Z,12.20
2018-11-13T04:33:23.613Z,12.30
2018-11-13T04:35:52.735Z,12.30
2018-11-13T04:38:21.276Z,12.40
2018-11-13T04:40:50.401Z,12.50
2018-11-13T04:43:19.203Z,12.70
2018-11-13T04:45:48.442Z,12.80
2018-11-13T04:48:17.118Z,12.80
2018-11-13T04:50:45.430Z,12.90
2018-11-13T04:53:13.658Z,12.90
2018-11-13T04:55:42.650Z,12.90
2018-11-13T04:58:10.907Z,12.80
2018-11-13T05:00:39.926Z,12.80
2018-11-13T05:03:08.508Z,12.80
2018-11-13T05:05:37.368Z,12.80
2018-11-13T05:08:06.545Z,12.90
2018-11-13T05:10:35.437Z,12.90
2018-11-13T05:13:04.401Z,12.80
2018-11-13T05:15:33.126Z,12.80
2018-11-13T05:18:02.362Z,12.70
2018-11-13T05:20:31.124Z,12.60
2018-11-13T05:23:00.210Z,12.60
2018-11-13T05:25:29.627Z,12.60
2018-11-13T05:27:58.592Z,12.60
2018-11-13T05:30:27.448Z,12.50
2018-11-13T05:32:56.515Z,12.40
2018-11-13T05:35:24.996Z,12.40
2018-11-13T05:37:53.226Z,12.30
2018-11-13T05:40:22.934Z,12.20
2018-11-13T05:42:51.543Z,12.10
2018-11-13T05:45:21.462Z,11.90
2018-11-13T05:47:49.976Z,11.80
2018-11-13T05:50:19.030Z,11.70
2018-11-13T05:52:48.704Z,11.60
2018-11-13T05:55:17.194Z,11.50
2018-11-13T05:57:45.467Z,11.50
2018-11-13T06:00:17.923Z,11.50
2018-11-13T06:02:47.710Z,11.40
2018-11-13T06:05:16.885Z,11.40
2018-11-13T06:07:45.496Z,11.40
2018-11-13T06:10:14.617Z,11.40
2018-11-13T06:12:43.922Z,11.50
2018-11-13T06:15:12.584Z,11.50
2018-11-13T06:17:41.215Z,11.40
2018-11-13T06:20:11.019Z,11.30
2018-11-13T06:22:39.590Z,11.30
2018-11-13T06:25:10.421Z,11.20
2018-11-13T06:27:40.010Z,11.20
2018-11-13T06:30:10.934Z,11.20
2018-11-13T06:32:40.047Z,11.10
2018-11-13T06:35:08.487Z,11.20
2018-11-13T06:37:36.830Z,11.20
2018-11-13T06:40:06.038Z,11.10
2018-11-13T06:42:34.476Z,11.10
2018-11-13T06:45:02.922Z,11.10
2018-11-13T06:47:31.419Z,11.10
2018-11-13T06:49:59.674Z,11.00
2018-11-13T06:52:27.918Z,11.00
2018-11-13T06:54:59.244Z,10.90
2018-11-13T06:57:29.162Z,10.90
2018-11-13T06:59:57.477Z,10.80
2018-11-13T07:02:25.870Z,10.80
2018-11-13T07:04:54.353Z,10.70
2018-11-13T07:07:22.874Z,10.70
2018-11-13T07:09:51.303Z,10.60
2018-11-13T07:12:19.643Z,10.60
2018-11-13T07:14:47.928Z,10.70
2018-11-13T07:17:16.202Z,10.60
2018-11-13T07:19:44.375Z,10.60
2018-11-13T07:22:12.671Z,10.50
2018-11-13T07:24:40.851Z,10.50
2018-11-13T07:27:09.034Z,10.40
2018-11-13T07:29:37.266Z,10.50
2018-11-13T07:32:05.734Z,10.50
2018-11-13T07:34:34.322Z,10.40
2018-11-13T07:37:02.912Z,10.40
2018-11-13T07:39:31.634Z,10.40
2018-11-13T07:41:59.887Z,10.40
2018-11-13T07:44:29.157Z,10.40
2018-11-13T07:46:57.373Z,10.40
2018-11-13T07:49:25.642Z,10.50
2018-11-13T07:51:53.878Z,10.50
2018-11-13T07:54:22.190Z,10.40
2018-11-13T07:56:50.462Z,10.50
2018-11-13T07:59:18.936Z,10.50
2018-11-13T08:01:47.699Z,10.50
2018-11-13T08:04:15.942Z,10.40
2018-11-13T08:06:44.813Z,10.40
2018-11-13T08:09:13.363Z,10.40
2018-11-13T08:11:42.250Z,10.40
2018-11-13T08:14:10.546Z,10.40
2018-11-13T08:16:38.839Z,10.40
2018-11-13T08:19:07.021Z,10.40
2018-11-13T08:21:35.374Z,10.40
2018-11-13T08:24:03.627Z,10.40
2018-11-13T08:26:31.828Z,10.40
2018-11-13T08:29:00.505Z,10.40
2018-11-13T08:31:28.995Z,10.50
2018-11-13T08:33:57.767Z,10.50
2018-11-13T08:36:26.031Z,10.50
2018-11-13T08:38:54.479Z,10.60
2018-11-13T08:41:22.739Z,10.60
2018-11-13T08:43:51.015Z,10.60
2018-11-13T08:46:19.237Z,10.60
2018-11-13T08:48:47.542Z,10.70
2018-11-13T08:51:16.896Z,10.70
2018-11-13T08:53:45.138Z,10.70
2018-11-13T08:56:13.404Z,10.70
2018-11-13T08:58:41.608Z,10.70
2018-11-13T09:01:09.779Z,10.60
2018-11-13T09:03:38.502Z,10.60
2018-11-13T09:06:06.786Z,10.60
2018-11-13T09:08:35.334Z,10.60
2018-11-13T09:11:03.532Z,10.60
2018-11-13T09:13:31.787Z,10.60
2018-11-13T09:16:00.348Z,10.60
2018-11-13T09:18:28.878Z,10.60
2018-11-13T09:20:57.423Z,10.70
2018-11-13T09:23:25.755Z,10.70
2018-11-13T09:25:53.926Z,10.70
2018-11-13T09:28:22.411Z,10.80
2018-11-13T09:30:51.309Z,10.80
2018-11-13T09:33:20.387Z,10.80
2018-11-13T09:35:50.058Z,10.80
2018-11-13T09:38:18.271Z,10.80
2018-11-13T09:40:46.500Z,10.70
2018-11-13T09:43:14.809Z,10.70
2018-11-13T09:45:43.266Z,10.60
2018-11-13T09:48:11.486Z,10.50
2018-11-13T09:50:39.810Z,10.50
2018-11-13T09:53:07.947Z,10.50
2018-11-13T09:55:36.201Z,10.40
2018-11-13T09:58:04.432Z,10.40
2018-11-13T10:00:32.875Z,10.40
2018-11-13T10:03:02.246Z,10.40
2018-11-13T10:05:29.988Z,10.50
2018-11-13T10:07:58.375Z,10.60
2018-11-13T10:10:27.434Z,10.60
2018-11-13T10:12:56.133Z,10.60
2018-11-13T10:15:28.683Z,10.70
2018-11-13T10:17:57.036Z,10.70
2018-11-13T10:20:25.088Z,10.80
2018-11-13T10:22:54.490Z,10.80
2018-11-13T10:25:22.781Z,10.70
2018-11-13T10:27:51.158Z,10.80
2018-11-13T10:30:20.850Z,10.80
2018-11-13T10:32:50.007Z,10.70
2018-11-13T10:35:19.837Z,10.80
2018-11-13T10:37:48.299Z,10.90
2018-11-13T10:40:18.087Z,11.00
2018-11-13T10:42:46.330Z,11.10
2018-11-13T10:45:17.521Z,11.20
2018-11-13T10:47:45.871Z,11.30
2018-11-13T10:50:16.085Z,11.40
2018-11-13T10:52:44.345Z,11.50
2018-11-13T10:55:13.370Z,11.60
2018-11-13T10:57:42.091Z,11.60
2018-11-13T11:00:19.466Z,11.50
2018-11-13T11:02:53.752Z,11.40
2018-11-13T11:05:24.143Z,11.30
2018-11-13T11:07:52.630Z,11.30
2018-11-13T11:10:21.026Z,11.30
2018-11-13T11:12:49.362Z,11.30
2018-11-13T11:15:17.972Z,11.30
2018-11-13T11:17:47.331Z,11.40
2018-11-13T11:20:15.570Z,11.40
2018-11-13T11:22:44.617Z,11.50
2018-11-13T11:25:13.981Z,11.50
2018-11-13T11:27:42.548Z,11.60
2018-11-13T11:30:14.335Z,11.60
2018-11-13T11:32:43.818Z,11.60
2018-11-13T11:35:12.627Z,11.60
2018-11-13T11:37:41.767Z,11.60
2018-11-13T11:40:11.339Z,11.60
2018-11-13T11:42:40.784Z,11.50
2018-11-13T11:45:12.600Z,11.50
2018-11-13T11:47:41.117Z,11.50
2018-11-13T11:50:11.552Z,11.40
2018-11-13T11:52:39.965Z,11.50
2018-11-13T11:55:08.700Z,11.50
2018-11-13T11:57:37.300Z,11.50
2018-11-13T12:00:09.444Z,11.50
2018-11-13T12:02:37.854Z,11.60
2018-11-13T12:05:06.926Z,11.60
2018-11-13T12:07:35.632Z,11.60
2018-11-13T12:10:04.487Z,11.60
2018-11-13T12:12:32.863Z,11.60
2018-11-13T12:15:01.176Z,11.70
2018-11-13T12:17:29.396Z,11.70
2018-11-13T12:19:57.608Z,11.80
2018-11-13T12:22:25.786Z,11.90
2018-11-13T12:24:54.192Z,11.90
2018-11-13T12:27:22.471Z,12.00
2018-11-13T12:29:50.770Z,11.90
2018-11-13T12:32:19.010Z,12.00
2018-11-13T12:34:47.369Z,12.00
2018-11-13T12:37:15.540Z,12.20
2018-11-13T12:39:43.997Z,12.30
2018-11-13T12:42:12.330Z,12.30
2018-11-13T12:44:40.570Z,12.30
2018-11-13T12:47:09.012Z,12.10
2018-11-13T12:49:37.327Z,11.90
2018-11-13T12:52:11.125Z,11.80
2018-11-13T12:54:39.403Z,11.70
2018-11-13T12:57:07.648Z,11.80
2018-11-13T12:59:36.122Z,11.80
2018-11-13T13:02:04.940Z,11.80
2018-11-13T13:04:33.084Z,11.90
2018-11-13T13:07:01.358Z,11.90
2018-11-13T13:09:29.754Z,12.00
2018-11-13T13:11:58.159Z,12.00
2018-11-13T13:14:26.431Z,12.10
2018-11-13T13:16:54.865Z,12.10
2018-11-13T13:19:23.287Z,12.20
2018-11-13T13:21:51.663Z,12.30
2018-11-13T13:24:20.914Z,12.30
2018-11-13T13:26:49.232Z,12.30
2018-11-13T13:29:17.739Z,12.40
2018-11-13T13:31:46.062Z,12.40
2018-11-13T13:34:14.263Z,12.30
2018-11-13T13:36:42.620Z,12.20
2018-11-13T13:39:11.032Z,12.10
2018-11-13T13:41:39.360Z,12.00
2018-11-13T13:44:08.143Z,11.90
2018-11-13T13:46:36.427Z,11.80
2018-11-13T13:49:05.312Z,11.80
2018-11-13T13:51:33.584Z,11.70
2018-11-13T13:54:02.184Z,11.60
2018-11-13T13:56:30.329Z,11.60
2018-11-13T13:58:58.601Z,11.50
2018-11-13T14:01:26.848Z,11.50
2018-11-13T14:03:55.105Z,11.50
2018-11-13T14:06:23.799Z,11.50
2018-11-13T14:08:52.310Z,11.40
2018-11-13T14:11:21.485Z,11.40
2018-11-13T14:13:50.252Z,11.30
2018-11-13T14:16:19.392Z,11.20
2018-11-13T14:18:48.677Z,11.20
2018-11-13T14:21:17.920Z,11.20
2018-11-13T14:23:47.071Z,11.20
2018-11-13T14:26:16.133Z,11.10
2018-11-13T14:28:44.957Z,11.10
2018-11-13T14:31:13.623Z,11.00
2018-11-13T14:33:43.341Z,11.00
2018-11-13T14:36:12.334Z,11.00
2018-11-13T14:38:41.521Z,11.00
2018-11-13T14:41:11.599Z,11.00
2018-11-13T14:43:40.852Z,11.10
2018-11-13T14:46:10.237Z,11.20
2018-11-13T14:48:41.755Z,11.30
2018-11-13T14:51:10.812Z,11.30
2018-11-13T14:53:39.715Z,11.30
2018-11-13T14:56:08.589Z,11.30
2018-11-13T14:58:36.827Z,11.30
2018-11-13T15:01:06.509Z,11.40
2018-11-13T15:03:35.346Z,11.40
2018-11-13T15:06:03.744Z,11.40
2018-11-13T15:08:31.963Z,11.40
2018-11-13T15:11:00.166Z,11.40
2018-11-13T15:13:28.594Z,11.40
2018-11-13T15:15:57.088Z,11.40
2018-11-13T15:18:25.703Z,11.30
2018-11-13T15:20:53.983Z,11.30
2018-11-13T15:23:22.211Z,11.30
2018-11-13T15:25:50.412Z,11.20
2018-11-13T15:28:19.626Z,11.10
2018-11-13T15:30:49.451Z,10.90
2018-11-13T15:33:19.300Z,10.80
2018-11-13T15:35:47.973Z,10.60
2018-11-13T15:38:16.207Z,10.40
2018-11-13T15:40:44.697Z,10.30
2018-11-13T15:43:12.939Z,10.10
2018-11-13T15:45:41.413Z,10.00
2018-11-13T15:48:11.124Z,9.80
2018-11-13T15:50:39.872Z,9.70
2018-11-13T15:53:08.355Z,9.50
2018-11-13T15:55:36.829Z,9.40
2018-11-13T15:58:05.719Z,9.20
2018-11-13T16:00:35.416Z,9.00
2018-11-13T16:03:09.553Z,8.90
2018-11-13T16:05:40.583Z,8.70
2018-11-13T16:08:09.354Z,8.60
2018-11-13T16:10:38.109Z,8.50
2018-11-13T16:13:06.713Z,8.40
2018-11-13T16:15:34.945Z,8.30
2018-11-13T16:18:05.394Z,8.20
2018-11-13T16:20:33.644Z,8.10
2018-11-13T16:23:02.318Z,8.00
2018-11-13T16:25:31.174Z,7.90
2018-11-13T16:28:00.796Z,7.80
2018-11-13T16:30:30.676Z,7.70
2018-11-13T16:32:59.091Z,7.60
2018-11-13T16:35:28.373Z,7.50
2018-11-13T16:37:58.145Z,7.40
2018-11-13T16:40:28.147Z,7.30
2018-11-13T16:42:56.449Z,7.20
2018-11-13T16:45:25.959Z,7.10
2018-11-13T16:47:54.639Z,7.00
2018-11-13T16:50:29.061Z,6.90
2018-11-13T16:52:57.626Z,6.80
2018-11-13T16:55:31.412Z,6.70
2018-11-13T16:58:00.554Z,6.70
2018-11-13T17:00:28.943Z,6.70
2018-11-13T17:02:57.289Z,6.60
2018-11-13T17:05:26.214Z,6.60
2018-11-13T17:07:54.384Z,6.60
2018-11-13T17:10:24.335Z,6.60
2018-11-13T17:12:54.421Z,6.50
2018-11-13T17:15:24.618Z,6.50
2018-11-13T17:17:54.347Z,6.40
2018-11-13T17:20:23.327Z,6.30
2018-11-13T17:22:52.543Z,6.20
2018-11-13T17:25:30.100Z,6.20
2018-11-13T17:27:58.944Z,6.20
2018-11-13T17:30:28.604Z,6.10
2018-11-13T17:32:58.063Z,6.10
2018-11-13T17:35:27.755Z,6.00
2018-11-13T17:37:56.599Z,5.90
2018-11-13T17:40:26.349Z,5.80
2018-11-13T17:42:56.869Z,5.70
2018-11-13T17:45:26.892Z,5.60
2018-11-13T17:47:55.869Z,5.60
2018-11-13T17:50:34.725Z,5.60
2018-11-13T17:53:04.132Z,5.70
2018-11-13T17:55:32.968Z,5.70
2018-11-13T17:58:03.692Z,5.70
2018-11-13T18:00:34.984Z,5.70
2018-11-13T18:03:05.067Z,5.80
2018-11-13T18:05:34.450Z,5.90
2018-11-13T18:08:03.343Z,6.00
2018-11-13T18:10:33.271Z,6.00
2018-11-13T18:13:02.461Z,6.00
2018-11-13T18:15:31.461Z,5.90
2018-11-13T18:18:00.308Z,6.00
2018-11-13T18:20:30.968Z,6.10
2018-11-13T18:22:59.655Z,6.00
2018-11-13T18:25:28.502Z,5.90
2018-11-13T18:27:57.749Z,5.70
2018-11-13T18:30:28.891Z,5.60
2018-11-13T18:32:59.055Z,5.60
2018-11-13T18:35:28.879Z,5.60
2018-11-13T18:37:58.365Z,5.60
2018-11-13T18:40:27.169Z,5.50
2018-11-13T18:42:56.776Z,5.40
2018-11-13T18:45:29.359Z,5.40
2018-11-13T18:47:57.894Z,5.30
2018-11-13T18:50:27.525Z,5.30
2018-11-13T18:52:56.219Z,5.30
2018-11-13T18:55:24.847Z,5.40
2018-11-13T18:57:53.791Z,5.50
2018-11-13T19:00:29.538Z,5.50
2018-11-13T19:02:59.607Z,5.40
2018-11-13T19:05:28.779Z,5.40
2018-11-13T19:07:58.821Z,5.30
2018-11-13T19:10:36.073Z,5.40
2018-11-13T19:13:07.542Z,5.40
2018-11-13T19:15:37.898Z,5.30
2018-11-13T19:18:08.375Z,5.20
2018-11-13T19:20:36.927Z,5.00
2018-11-13T19:23:06.343Z,4.80
2018-11-13T19:25:35.155Z,4.60
2018-11-13T19:28:03.800Z,4.50
2018-11-13T19:30:32.204Z,4.40
2018-11-13T19:33:00.587Z,4.30
2018-11-13T19:35:29.518Z,4.30
2018-11-13T19:37:57.750Z,4.30
2018-11-13T19:40:27.619Z,4.30
2018-11-13T19:42:56.736Z,4.40
2018-11-13T19:45:26.471Z,4.40
2018-11-13T19:47:55.594Z,4.60
2018-11-13T19:50:26.793Z,4.90
2018-11-13T19:52:55.641Z,5.00
2018-11-13T19:55:24.771Z,5.00
2018-11-13T19:57:53.051Z,4.90
2018-11-13T20:00:22.959Z,4.70
2018-11-13T20:02:52.159Z,4.60
2018-11-13T20:05:21.786Z,4.40
2018-11-13T20:07:50.643Z,4.20
2018-11-13T20:10:21.124Z,4.10
2018-11-13T20:12:50.324Z,3.90
2018-11-13T20:15:19.948Z,3.90
2018-11-13T20:17:48.782Z,3.80
2018-11-13T20:20:20.898Z,3.80
2018-11-13T20:22:50.245Z,4.00
2018-11-13T20:25:20.106Z,4.00
2018-11-13T20:27:49.329Z,4.00
2018-11-13T20:30:20.185Z,4.00
2018-11-13T20:32:48.968Z,3.80
2018-11-13T20:35:18.499Z,3.70
2018-11-13T20:37:49.451Z,3.60
2018-11-13T20:40:19.125Z,3.50
2018-11-13T20:42:50.059Z,3.50
2018-11-13T20:45:19.935Z,3.30
2018-11-13T20:47:48.198Z,3.30
2018-11-13T20:50:18.886Z,3.20
2018-11-13T20:52:47.304Z,3.20
2018-11-13T20:55:15.695Z,3.20
2018-11-13T20:57:43.945Z,3.10
2018-11-13T21:00:16.850Z,3.10
2018-11-13T21:02:45.676Z,3.00
2018-11-13T21:05:14.924Z,3.00
2018-11-13T21:07:44.282Z,3.00
2018-11-13T21:10:19.718Z,3.00
2018-11-13T21:12:48.657Z,2.90
2018-11-13T21:15:19.298Z,2.90
2018-11-13T21:17:48.269Z,2.90
2018-11-13T21:20:17.492Z,2.80
2018-11-13T21:22:46.086Z,2.80
2018-11-13T21:25:16.761Z,2.80
2018-11-13T21:27:45.039Z,2.80
2018-11-13T21:30:15.405Z,2.70
2018-11-13T21:32:44.668Z,2.70
2018-11-13T21:35:14.072Z,2.80
2018-11-13T21:37:44.341Z,2.80
2018-11-13T21:40:17.711Z,2.70
2018-11-13T21:42:47.839Z,2.70
2018-11-13T21:45:17.664Z,2.70
2018-11-13T21:47:46.248Z,2.60
2018-11-13T21:50:16.935Z,2.70
2018-11-13T21:52:45.909Z,2.80
2018-11-13T21:55:15.943Z,2.80
2018-11-13T21:57:44.625Z,2.80
2018-11-13T22:00:16.923Z,2.70
2018-11-13T22:02:47.418Z,2.60
2018-11-13T22:05:18.354Z,2.50
2018-11-13T22:07:48.064Z,2.50
2018-11-13T22:10:17.856Z,2.40
2018-11-13T22:12:47.275Z,2.30
2018-11-13T22:15:17.375Z,2.20
2018-11-13T22:17:47.347Z,2.10
2018-11-13T22:20:17.258Z,2.10
2018-11-13T22:22:47.035Z,1.90
2018-11-13T22:25:18.623Z,1.90
2018-11-13T22:27:49.449Z,1.80
2018-11-13T22:30:20.143Z,1.70
2018-11-13T22:32:49.599Z,1.80
2018-11-13T22:35:19.062Z,1.80
2018-11-13T22:37:48.281Z,1.70
2018-11-13T22:40:18.052Z,1.80
2018-11-13T22:42:49.673Z,1.70
2018-11-13T22:45:25.549Z,1.70
2018-11-13T22:47:54.239Z,1.60
2018-11-13T22:50:34.369Z,1.60
2018-11-13T22:53:03.028Z,1.60
2018-11-13T22:55:31.450Z,1.50
2018-11-13T22:58:00.965Z,1.50
2018-11-13T23:00:37.302Z,1.50
2018-11-13T23:03:07.034Z,1.50
2018-11-13T23:05:35.517Z,1.40
2018-11-13T23:08:03.825Z,1.40
2018-11-13T23:10:32.770Z,1.40
2018-11-13T23:13:02.291Z,1.50
2018-11-13T23:15:30.927Z,1.40
2018-11-13T23:17:59.467Z,1.40
2018-11-13T23:20:28.159Z,1.40
2018-11-13T23:22:57.002Z,1.50
2018-11-13T23:25:25.575Z,1.50
2018-11-13T23:27:54.660Z,1.40
2018-11-13T23:30:24.946Z,1.40
2018-11-13T23:32:54.279Z,1.40
2018-11-13T23:35:23.335Z,1.40
2018-11-13T23:37:56.492Z,1.30
2018-11-13T23:40:26.130Z,1.40
2018-11-13T23:42:54.626Z,1.30
2018-11-13T23:45:24.418Z,1.40
2018-11-13T23:47:53.368Z,1.40
2018-11-13T23:50:21.909Z,1.30
2018-11-13T23:52:50.977Z,1.30
2018-11-13T23:55:19.321Z,1.30
2018-11-13T23:57:48.189Z,1.40
